createdAt,value
2023-03-12T00:01:47.151Z,0.60
2023-03-12T00:06:48.877Z,0.70
2023-03-12T00:11:50.640Z,0.60
2023-03-12T00:16:52.371Z,0.60
2023-03-12T00:21:54.124Z,0.00
2023-03-12T00:26:55.832Z,0.10
2023-03-12T00:31:57.560Z,0.10
2023-03-12T00:36:59.877Z,0.10
2023-03-12T00:42:02.378Z,0.00
2023-03-12T00:47:04.818Z,0.00
2023-03-12T00:52:06.952Z,-0.20
2023-03-12T00:57:09.032Z,-0.20
2023-03-12T01:02:11.956Z,-0.30
2023-03-12T01:07:13.977Z,-0.30
2023-03-12T01:12:15.801Z,-0.20
2023-03-12T01:17:20.482Z,-0.40
2023-03-12T01:22:22.570Z,-0.40
2023-03-12T01:27:24.488Z,-0.20
2023-03-12T01:32:26.438Z,-0.10
2023-03-12T01:37:29.065Z,-0.20
2023-03-12T01:42:30.760Z,-0.20
2023-03-12T01:47:32.541Z,-0.20
2023-03-12T01:52:38.109Z,-0.10
2023-03-12T01:57:50.924Z,0.00
2023-03-12T02:02:56.232Z,0.10
2023-03-12T02:07:59.936Z,-0.10
2023-03-12T02:13:02.040Z,0.00
2023-03-12T02:18:07.404Z,0.20
2023-03-12T02:23:30.393Z,0.30
2023-03-12T02:28:35.785Z,0.20
2023-03-12T02:33:37.603Z,0.10
2023-03-12T02:38:46.948Z,0.10
2023-03-12T02:43:59.146Z,0.30
2023-03-12T02:49:01.959Z,0.50
2023-03-12T02:54:04.308Z,0.50
2023-03-12T02:59:07.075Z,0.60
2023-03-12T03:04:13.520Z,0.60
2023-03-12T03:09:15.848Z,0.50
2023-03-12T03:14:18.596Z,0.50
2023-03-12T03:19:23.154Z,0.60
2023-03-12T03:24:24.918Z,0.50
2023-03-12T03:29:26.735Z,0.50
2023-03-12T03:34:28.562Z,0.50
2023-03-12T03:39:30.792Z,0.60
2023-03-12T03:44:32.721Z,0.70
2023-03-12T03:49:35.442Z,0.60
2023-03-12T03:54:37.437Z,0.60
2023-03-12T03:59:41.153Z,0.50
2023-03-12T04:04:43.278Z,0.50
2023-03-12T04:09:45.690Z,0.40
2023-03-12T04:14:47.458Z,0.40
2023-03-12T04:19:49.450Z,0.50
2023-03-12T04:24:51.358Z,0.60
2023-03-12T04:29:53.606Z,0.60
2023-03-12T04:34:55.462Z,0.60
2023-03-12T04:39:57.341Z,0.50
2023-03-12T04:44:59.149Z,0.40
2023-03-12T04:50:01.103Z,0.50
2023-03-12T04:55:03.799Z,0.50
2023-03-12T05:00:11.024Z,0.50
2023-03-12T05:05:13.057Z,0.60
2023-03-12T05:10:15.560Z,0.60
2023-03-12T05:15:17.828Z,0.70
2023-03-12T05:20:19.919Z,0.70
2023-03-12T05:25:22.932Z,0.70
2023-03-12T05:30:24.908Z,0.70
2023-03-12T05:35:26.896Z,0.70
2023-03-12T05:40:28.864Z,0.80
2023-03-12T05:45:30.755Z,0.70
2023-03-12T05:50:34.160Z,0.70
2023-03-12T05:55:37.222Z,0.90
2023-03-12T06:00:41.716Z,1.00
2023-03-12T06:05:47.882Z,1.00
2023-03-12T06:10:54.873Z,1.20
2023-03-12T06:16:19.483Z,1.40
2023-03-12T06:21:24.877Z,1.60
2023-03-12T06:26:28.007Z,1.80
2023-03-12T06:31:29.910Z,2.20
2023-03-12T06:36:31.741Z,2.20
2023-03-12T06:41:33.854Z,2.60
2023-03-12T06:46:35.815Z,3.00
2023-03-12T06:51:37.709Z,3.20
2023-03-12T06:56:39.925Z,2.50
2023-03-12T07:01:41.861Z,2.70
2023-03-12T07:06:44.584Z,2.90
2023-03-12T07:11:46.402Z,2.90
2023-03-12T07:16:48.433Z,3.00
2023-03-12T07:21:50.264Z,3.30
2023-03-12T07:26:51.974Z,3.50
2023-03-12T07:31:53.707Z,3.50
2023-03-12T07:36:56.391Z,3.40
2023-03-12T07:41:58.203Z,3.20
2023-03-12T07:47:09.684Z,3.20
2023-03-12T07:52:21.370Z,3.50
2023-03-12T07:57:23.197Z,3.50
2023-03-12T08:02:25.016Z,3.40
2023-03-12T08:07:32.153Z,3.70
2023-03-12T08:12:34.327Z,3.60
2023-03-12T08:17:36.027Z,4.20
2023-03-12T08:22:38.821Z,4.90
2023-03-12T08:27:41.277Z,5.00
2023-03-12T08:32:43.037Z,4.70
2023-03-12T08:37:44.820Z,4.70
2023-03-12T08:42:46.554Z,4.90
2023-03-12T08:47:48.292Z,4.70
2023-03-12T08:52:50.378Z,5.40
2023-03-12T08:57:52.074Z,6.00
2023-03-12T09:02:54.276Z,5.80
2023-03-12T09:07:57.279Z,6.90
2023-03-12T09:12:59.283Z,7.50
2023-03-12T09:18:01.000Z,7.00
2023-03-12T09:23:02.754Z,6.40
2023-03-12T09:28:04.683Z,6.30
2023-03-12T09:33:06.798Z,6.40
2023-03-12T09:38:11.861Z,6.70
2023-03-12T09:43:27.769Z,6.60
2023-03-12T09:48:35.308Z,6.70
2023-03-12T09:53:48.451Z,6.60
2023-03-12T09:58:54.509Z,6.40
2023-03-12T10:04:17.685Z,6.90
2023-03-12T10:09:29.466Z,6.80
2023-03-12T10:15:02.461Z,6.60
2023-03-12T10:20:23.128Z,6.80
2023-03-12T10:25:41.129Z,7.10
2023-03-12T10:30:49.858Z,7.40
2023-03-12T10:35:52.991Z,7.00
2023-03-12T10:40:54.786Z,6.40
2023-03-12T10:46:38.315Z,6.20
2023-03-12T10:51:57.850Z,6.20
2023-03-12T10:57:00.340Z,6.30
2023-03-12T11:02:21.721Z,6.20
2023-03-12T11:07:30.019Z,5.90
2023-03-12T11:12:32.320Z,6.00
2023-03-12T11:17:34.030Z,6.10
2023-03-12T11:22:35.741Z,5.90
2023-03-12T11:27:46.040Z,5.70
2023-03-12T11:32:49.402Z,5.80
2023-03-12T11:38:08.117Z,5.70
2023-03-12T11:43:12.965Z,5.60
2023-03-12T11:48:40.096Z,5.70
2023-03-12T11:53:56.530Z,5.90
2023-03-12T11:59:19.652Z,5.80
2023-03-12T12:04:30.499Z,6.00
2023-03-12T12:09:55.436Z,5.90
2023-03-12T12:15:32.741Z,6.00
2023-03-12T12:20:57.263Z,6.10
2023-03-12T12:26:19.542Z,6.20
2023-03-12T12:31:36.614Z,6.20
2023-03-12T12:36:39.084Z,6.20
2023-03-12T12:41:51.379Z,6.40
2023-03-12T12:46:59.078Z,6.60
2023-03-12T12:52:04.882Z,6.60
2023-03-12T12:57:13.866Z,6.90
2023-03-12T13:02:27.743Z,7.00
2023-03-12T13:07:34.087Z,6.90
2023-03-12T13:12:50.923Z,7.00
2023-03-12T13:17:52.688Z,6.80
2023-03-12T13:23:09.401Z,6.90
2023-03-12T13:28:26.582Z,7.20
2023-03-12T13:33:48.170Z,7.10
2023-03-12T13:38:54.781Z,7.40
2023-03-12T13:43:56.695Z,7.40
2023-03-12T13:49:03.155Z,7.50
2023-03-12T13:54:05.187Z,7.60
2023-03-12T13:59:13.692Z,7.60
2023-03-12T14:04:21.689Z,7.70
2023-03-12T14:09:51.028Z,7.70
2023-03-12T14:15:11.831Z,7.90
2023-03-12T14:20:19.298Z,8.00
2023-03-12T14:25:31.465Z,8.10
2023-03-12T14:31:10.834Z,8.20
2023-03-12T14:36:18.446Z,8.40
2023-03-12T14:41:25.782Z,8.80
2023-03-12T14:46:28.258Z,8.90
2023-03-12T14:51:35.419Z,8.80
2023-03-12T14:56:37.200Z,8.90
2023-03-12T15:01:40.236Z,9.10
2023-03-12T15:06:53.006Z,9.50
2023-03-12T15:11:58.649Z,9.60
2023-03-12T15:17:00.883Z,9.70
2023-03-12T15:22:04.186Z,9.90
2023-03-12T15:27:24.720Z,10.10
2023-03-12T15:32:29.681Z,10.30
2023-03-12T15:37:34.925Z,10.00
2023-03-12T15:42:40.720Z,9.90
2023-03-12T15:47:42.673Z,9.70
2023-03-12T15:52:59.466Z,9.60
2023-03-12T15:58:01.771Z,9.40
2023-03-12T16:03:08.026Z,9.50
2023-03-12T16:08:31.657Z,9.40
2023-03-12T16:13:33.655Z,9.40
2023-03-12T16:18:35.431Z,9.50
2023-03-12T16:23:37.489Z,9.50
2023-03-12T16:28:39.748Z,9.40
2023-03-12T16:33:42.535Z,9.30
2023-03-12T16:38:44.567Z,9.20
2023-03-12T16:43:53.617Z,9.20
2023-03-12T16:48:55.597Z,9.20
2023-03-12T16:54:09.559Z,9.20
2023-03-12T16:59:39.659Z,9.10
2023-03-12T17:04:41.535Z,9.20
2023-03-12T17:09:43.325Z,9.20
2023-03-12T17:14:45.089Z,9.30
2023-03-12T17:19:46.773Z,9.30
2023-03-12T17:24:48.533Z,9.30
2023-03-12T17:29:50.242Z,9.40
2023-03-12T17:34:56.597Z,9.40
2023-03-12T17:39:58.446Z,9.50
2023-03-12T17:45:00.589Z,9.60
2023-03-12T17:50:03.148Z,9.60
2023-03-12T17:55:06.030Z,9.60
2023-03-12T18:00:12.607Z,9.60
2023-03-12T18:05:14.714Z,9.60
2023-03-12T18:10:17.955Z,9.50
2023-03-12T18:15:19.778Z,9.70
2023-03-12T18:20:35.819Z,9.70
2023-03-12T18:25:39.301Z,9.70
2023-03-12T18:30:41.212Z,9.70
2023-03-12T18:35:46.137Z,9.70
2023-03-12T18:40:47.994Z,9.70
2023-03-12T18:45:49.986Z,9.70
2023-03-12T18:50:52.155Z,9.70
2023-03-12T18:55:56.468Z,9.70
2023-03-12T19:00:59.084Z,9.70
2023-03-12T19:06:04.988Z,9.80
2023-03-12T19:11:12.673Z,9.80
2023-03-12T19:16:17.731Z,9.80
2023-03-12T19:21:19.712Z,9.90
2023-03-12T19:26:21.683Z,9.90
2023-03-12T19:31:23.506Z,9.90
2023-03-12T19:36:25.327Z,9.90
2023-03-12T19:41:27.851Z,10.00
2023-03-12T19:46:31.128Z,10.00
2023-03-12T19:51:32.851Z,10.10
2023-03-12T19:56:34.729Z,10.10
2023-03-12T20:01:37.988Z,10.00
2023-03-12T20:06:39.716Z,9.90
2023-03-12T20:11:41.479Z,10.00
2023-03-12T20:16:43.343Z,10.00
2023-03-12T20:21:45.468Z,9.90
2023-03-12T20:26:47.455Z,10.00
2023-03-12T20:31:49.193Z,10.10
2023-03-12T20:36:50.981Z,10.10
2023-03-12T20:41:52.695Z,10.00
2023-03-12T20:46:54.401Z,9.90
2023-03-12T20:51:56.152Z,10.00
2023-03-12T20:56:58.752Z,9.90
2023-03-12T21:02:00.522Z,10.10
2023-03-12T21:07:02.253Z,10.00
2023-03-12T21:12:04.364Z,9.90
2023-03-12T21:17:06.425Z,9.70
2023-03-12T21:22:08.716Z,9.60
2023-03-12T21:27:11.493Z,9.50
2023-03-12T21:32:13.411Z,9.50
2023-03-12T21:37:16.292Z,9.60
2023-03-12T21:42:19.188Z,9.60
2023-03-12T21:47:20.895Z,9.60
2023-03-12T21:52:22.830Z,9.50
2023-03-12T21:57:24.881Z,9.50
2023-03-12T22:02:28.056Z,9.50
2023-03-12T22:07:30.344Z,9.50
2023-03-12T22:12:32.720Z,9.30
2023-03-12T22:17:37.633Z,9.30
2023-03-12T22:22:44.330Z,9.30
2023-03-12T22:27:46.256Z,9.30
2023-03-12T22:32:48.360Z,9.30
2023-03-12T22:37:50.252Z,9.20
2023-03-12T22:42:53.573Z,9.30
2023-03-12T22:47:55.600Z,9.30
2023-03-12T22:52:57.477Z,9.50
2023-03-12T22:57:59.357Z,9.60
2023-03-12T23:03:01.135Z,9.60
2023-03-12T23:08:03.494Z,9.70
2023-03-12T23:13:09.164Z,9.60
2023-03-12T23:18:13.543Z,9.50
2023-03-12T23:23:18.148Z,9.70
2023-03-12T23:28:20.376Z,9.60
2023-03-12T23:33:22.397Z,9.70
2023-03-12T23:38:25.721Z,9.70
2023-03-12T23:43:28.008Z,9.70
2023-03-12T23:48:32.000Z,9.70
2023-03-12T23:53:38.286Z,9.70
2023-03-12T23:58:40.659Z,9.70
